Airfield :
LOGIN :

Register | Disclaimer

   EN    FR    IT 

 










Legend :    VFR   Marginal VFR   IFR   Intensive IFR   Very Intensive IFR
Visi :
Ceiling :
>= 8 km
>= 3000ft
5 to 8 km
1000 to 3000 ft
1500m to 5 km
500 to 1000 ft
800 to 1500m
200 to 500 ft
< 800m
< 200 ft
Symbols :   Thunderstorms  Fog  Heavy snow  Heavy precipitations  Wind > 20 kt
SIGMETs :     Misc.  Thunderstorms  Icing  Turbulence  Mountain Waves  Volcanic Ashes







- Airport Elevation : 29 ft
- IATA code : SVG


ENZV - Sola

CURRENT METAR :
  • 171920Z 14016KT 9999 FEW020 SCT080 BKN100 04/01 Q1019 TEMPO 3000 SHRASN VV008

EXPIRED METARs :
  • 171850Z 14015KT 9999 FEW020 BKN088 04/01 Q1019 TEMPO 3000 SHRASN VV008
  • 171820Z 14017KT 9999 FEW020 BKN090 04/01 Q1019 NOSIG
  • 171750Z 14015KT 9999 FEW020 SCT080 BKN110 04/01 Q1019 NOSIG
  • 171720Z 15012KT 9999 FEW020 BKN110 04/01 Q1019 NOSIG
  • 171650Z 14014KT 9999 FEW018 BKN110 04/01 Q1019 NOSIG

TAF TAF ENZV
Valid from the 17 at 18:00 until the 18 at 18:00 UTC


1718/1818 15015KT 9999 FEW015 BKN030
TEMPO 1720/1811 4000 SHRASN BKN007 SCT015CB
BECMG 1801/1804 19005KT
No reported NOTAMs for that airfield.



MET'MAP, your aeronautical weather chart ! - Copyright ORBIFLY December 2007 - Disclaimer

ORBIFLY MET'MAP TEAM :

Programming & Development : Alexandra Zaïnal
Concept & Development : Baudouin d'Aumeries
Co-Development & Prog : Marc-Olivier Méhu
Technical & hardware support : Manuel Goepfert

Contact : metmap@orbifly.com




SOURCES & CREDITS :

   NOAA